sensor_id;sensor_type;location;lat;lon;timestamp;temperature;humidity
36586;DHT22;22591;48.314;11.562;2022-08-19T00:01:07;18.30;99.90
36586;DHT22;22591;48.314;11.562;2022-08-19T00:03:34;18.40;99.90
36586;DHT22;22591;48.314;11.562;2022-08-19T00:05:59;18.40;99.90
36586;DHT22;22591;48.314;11.562;2022-08-19T00:08:25;18.40;99.90
36586;DHT22;22591;48.314;11.562;2022-08-19T00:10:51;18.40;99.90
36586;DHT22;22591;48.314;11.562;2022-08-19T00:13:16;18.50;99.90
36586;DHT22;22591;48.314;11.562;2022-08-19T00:15:42;18.60;99.90
36586;DHT22;22591;48.314;11.562;2022-08-19T00:18:10;18.70;99.90
36586;DHT22;22591;48.314;11.562;2022-08-19T00:20:36;18.70;99.90
36586;DHT22;22591;48.314;11.562;2022-08-19T00:23:03;18.70;99.90
36586;DHT22;22591;48.314;11.562;2022-08-19T00:25:29;18.80;99.90
36586;DHT22;22591;48.314;11.562;2022-08-19T00:27:54;18.70;99.90
36586;DHT22;22591;48.314;11.562;2022-08-19T00:30:20;18.70;99.90
36586;DHT22;22591;48.314;11.562;2022-08-19T00:32:46;18.70;99.90
36586;DHT22;22591;48.314;11.562;2022-08-19T00:35:12;18.80;99.90
36586;DHT22;22591;48.314;11.562;2022-08-19T00:37:38;18.90;99.90
36586;DHT22;22591;48.314;11.562;2022-08-19T00:40:05;18.90;99.90
36586;DHT22;22591;48.314;11.562;2022-08-19T00:42:31;18.90;99.90
36586;DHT22;22591;48.314;11.562;2022-08-19T00:44:56;18.90;99.90
36586;DHT22;22591;48.314;11.562;2022-08-19T00:47:22;18.90;99.90
36586;DHT22;22591;48.314;11.562;2022-08-19T00:49:51;18.90;99.90
36586;DHT22;22591;48.314;11.562;2022-08-19T00:52:33;18.90;99.90
36586;DHT22;22591;48.314;11.562;2022-08-19T00:55:00;18.90;99.90
36586;DHT22;22591;48.314;11.562;2022-08-19T00:57:39;18.90;99.90
36586;DHT22;22591;48.314;11.562;2022-08-19T01:00:13;18.90;99.90
36586;DHT22;22591;48.314;11.562;2022-08-19T01:02:41;19.00;99.90
36586;DHT22;22591;48.314;11.562;2022-08-19T01:05:10;19.00;99.90
36586;DHT22;22591;48.314;11.562;2022-08-19T01:07:39;19.00;99.90
36586;DHT22;22591;48.314;11.562;2022-08-19T01:10:11;19.10;99.90
36586;DHT22;22591;48.314;11.562;2022-08-19T01:12:38;19.10;99.90
36586;DHT22;22591;48.314;11.562;2022-08-19T01:15:07;19.10;99.90
36586;DHT22;22591;48.314;11.562;2022-08-19T01:17:34;19.10;99.90
36586;DHT22;22591;48.314;11.562;2022-08-19T01:20:02;19.10;99.90
36586;DHT22;22591;48.314;11.562;2022-08-19T01:22:36;19.10;99.90
36586;DHT22;22591;48.314;11.562;2022-08-19T01:25:04;19.10;99.90
36586;DHT22;22591;48.314;11.562;2022-08-19T01:27:50;19.10;99.90
36586;DHT22;22591;48.314;11.562;2022-08-19T01:30:26;19.00;99.90
36586;DHT22;22591;48.314;11.562;2022-08-19T01:32:53;19.00;99.90
36586;DHT22;22591;48.314;11.562;2022-08-19T01:35:20;19.00;99.90
36586;DHT22;22591;48.314;11.562;2022-08-19T01:38:10;18.90;99.90
36586;DHT22;22591;48.314;11.562;2022-08-19T01:40:38;18.90;99.90
36586;DHT22;22591;48.314;11.562;2022-08-19T01:43:04;18.80;99.90
36586;DHT22;22591;48.314;11.562;2022-08-19T01:45:34;18.80;99.90
36586;DHT22;22591;48.314;11.562;2022-08-19T01:48:00;18.80;99.90
36586;DHT22;22591;48.314;11.562;2022-08-19T01:50:25;18.80;99.90
36586;DHT22;22591;48.314;11.562;2022-08-19T01:52:51;18.80;99.90
36586;DHT22;22591;48.314;11.562;2022-08-19T01:55:20;18.70;99.90
36586;DHT22;22591;48.314;11.562;2022-08-19T01:57:51;18.70;99.90
36586;DHT22;22591;48.314;11.562;2022-08-19T02:00:21;18.70;99.90
36586;DHT22;22591;48.314;11.562;2022-08-19T02:02:47;18.70;99.90
36586;DHT22;22591;48.314;11.562;2022-08-19T02:05:13;18.80;99.90
36586;DHT22;22591;48.314;11.562;2022-08-19T02:07:40;18.80;99.90
36586;DHT22;22591;48.314;11.562;2022-08-19T02:10:13;18.90;99.90
36586;DHT22;22591;48.314;11.562;2022-08-19T02:12:39;18.90;99.90
36586;DHT22;22591;48.314;11.562;2022-08-19T02:15:05;18.90;99.90
36586;DHT22;22591;48.314;11.562;2022-08-19T02:17:32;18.90;99.90
36586;DHT22;22591;48.314;11.562;2022-08-19T02:19:58;18.90;99.90
36586;DHT22;22591;48.314;11.562;2022-08-19T02:22:25;18.80;99.90
36586;DHT22;22591;48.314;11.562;2022-08-19T02:24:54;18.80;99.90
36586;DHT22;22591;48.314;11.562;2022-08-19T02:27:21;18.90;99.90
36586;DHT22;22591;48.314;11.562;2022-08-19T02:29:48;19.00;99.90
36586;DHT22;22591;48.314;11.562;2022-08-19T02:32:15;19.00;99.90
36586;DHT22;22591;48.314;11.562;2022-08-19T02:34:41;19.00;99.90
36586;DHT22;22591;48.314;11.562;2022-08-19T02:37:06;19.00;99.90
36586;DHT22;22591;48.314;11.562;2022-08-19T02:39:52;19.00;99.90
36586;DHT22;22591;48.314;11.562;2022-08-19T02:42:18;19.00;99.90
36586;DHT22;22591;48.314;11.562;2022-08-19T02:44:43;19.00;99.90
36586;DHT22;22591;48.314;11.562;2022-08-19T02:47:10;19.00;99.90
36586;DHT22;22591;48.314;11.562;2022-08-19T02:49:36;19.00;99.90
36586;DHT22;22591;48.314;11.562;2022-08-19T02:52:02;19.00;99.90
36586;DHT22;22591;48.314;11.562;2022-08-19T02:54:28;19.10;99.90
36586;DHT22;22591;48.314;11.562;2022-08-19T02:56:54;19.10;99.90
36586;DHT22;22591;48.314;11.562;2022-08-19T02:59:20;19.20;99.90
36586;DHT22;22591;48.314;11.562;2022-08-19T03:01:46;19.10;99.90
36586;DHT22;22591;48.314;11.562;2022-08-19T03:04:14;19.10;99.90
36586;DHT22;22591;48.314;11.562;2022-08-19T03:06:43;19.10;99.90
36586;DHT22;22591;48.314;11.562;2022-08-19T03:09:09;19.20;99.90
36586;DHT22;22591;48.314;11.562;2022-08-19T03:11:36;19.20;99.90
36586;DHT22;22591;48.314;11.562;2022-08-19T03:14:03;19.20;99.90
36586;DHT22;22591;48.314;11.562;2022-08-19T03:16:31;19.20;99.90
36586;DHT22;22591;48.314;11.562;2022-08-19T03:18:58;19.20;99.90
36586;DHT22;22591;48.314;11.562;2022-08-19T03:21:27;19.20;99.90
36586;DHT22;22591;48.314;11.562;2022-08-19T03:23:55;19.20;99.90
36586;DHT22;22591;48.314;11.562;2022-08-19T03:26:20;19.20;99.90
36586;DHT22;22591;48.314;11.562;2022-08-19T03:28:46;19.20;99.90
36586;DHT22;22591;48.314;11.562;2022-08-19T03:31:17;19.20;99.90
36586;DHT22;22591;48.314;11.562;2022-08-19T03:33:44;19.20;99.90
36586;DHT22;22591;48.314;11.562;2022-08-19T03:36:13;19.20;99.90
36586;DHT22;22591;48.314;11.562;2022-08-19T03:38:46;19.20;99.90
36586;DHT22;22591;48.314;11.562;2022-08-19T03:41:18;19.30;99.90
36586;DHT22;22591;48.314;11.562;2022-08-19T03:43:45;19.20;99.90
36586;DHT22;22591;48.314;11.562;2022-08-19T03:46:20;19.20;99.90
36586;DHT22;22591;48.314;11.562;2022-08-19T03:48:47;19.20;99.90
36586;DHT22;22591;48.314;11.562;2022-08-19T03:51:33;19.20;99.90
36586;DHT22;22591;48.314;11.562;2022-08-19T03:54:02;19.20;99.90
36586;DHT22;22591;48.314;11.562;2022-08-19T03:56:28;19.20;99.90
36586;DHT22;22591;48.314;11.562;2022-08-19T03:58:55;19.20;99.90
36586;DHT22;22591;48.314;11.562;2022-08-19T04:01:24;19.10;99.90
36586;DHT22;22591;48.314;11.562;2022-08-19T04:03:51;19.10;99.90
36586;DHT22;22591;48.314;11.562;2022-08-19T04:06:24;19.10;99.90
36586;DHT22;22591;48.314;11.562;2022-08-19T04:08:52;19.10;99.90
36586;DHT22;22591;48.314;11.562;2022-08-19T04:11:24;19.20;99.90
36586;DHT22;22591;48.314;11.562;2022-08-19T04:13:52;19.20;99.90
36586;DHT22;22591;48.314;11.562;2022-08-19T04:16:19;19.20;99.90
36586;DHT22;22591;48.314;11.562;2022-08-19T04:18:46;19.20;99.90
36586;DHT22;22591;48.314;11.562;2022-08-19T04:21:17;19.20;99.90
36586;DHT22;22591;48.314;11.562;2022-08-19T04:23:44;19.10;99.90
36586;DHT22;22591;48.314;11.562;2022-08-19T04:26:21;19.20;99.90
36586;DHT22;22591;48.314;11.562;2022-08-19T04:28:47;19.20;99.90
36586;DHT22;22591;48.314;11.562;2022-08-19T04:31:19;19.20;99.90
36586;DHT22;22591;48.314;11.562;2022-08-19T04:33:46;19.20;99.90
36586;DHT22;22591;48.314;11.562;2022-08-19T04:36:23;19.30;99.90
36586;DHT22;22591;48.314;11.562;2022-08-19T04:38:52;19.30;99.90
36586;DHT22;22591;48.314;11.562;2022-08-19T04:41:18;19.30;99.90
36586;DHT22;22591;48.314;11.562;2022-08-19T04:44:03;19.30;99.90
36586;DHT22;22591;48.314;11.562;2022-08-19T04:46:29;19.30;99.90
36586;DHT22;22591;48.314;11.562;2022-08-19T04:48:59;19.30;99.90
36586;DHT22;22591;48.314;11.562;2022-08-19T04:51:25;19.30;99.90
36586;DHT22;22591;48.314;11.562;2022-08-19T04:53:51;19.40;99.90
36586;DHT22;22591;48.314;11.562;2022-08-19T04:56:19;19.40;99.90
36586;DHT22;22591;48.314;11.562;2022-08-19T04:58:46;19.40;99.90
36586;DHT22;22591;48.314;11.562;2022-08-19T05:01:20;19.40;99.90
36586;DHT22;22591;48.314;11.562;2022-08-19T05:03:46;19.40;99.90
36586;DHT22;22591;48.314;11.562;2022-08-19T05:06:14;19.50;99.90
36586;DHT22;22591;48.314;11.562;2022-08-19T05:08:41;19.50;99.90
36586;DHT22;22591;48.314;11.562;2022-08-19T05:11:15;19.50;99.90
36586;DHT22;22591;48.314;11.562;2022-08-19T05:13:42;19.50;99.90
36586;DHT22;22591;48.314;11.562;2022-08-19T05:16:10;19.50;99.90
36586;DHT22;22591;48.314;11.562;2022-08-19T05:18:36;19.60;99.90
36586;DHT22;22591;48.314;11.562;2022-08-19T05:21:21;19.50;99.90
36586;DHT22;22591;48.314;11.562;2022-08-19T05:24:06;19.50;99.90
36586;DHT22;22591;48.314;11.562;2022-08-19T05:26:37;19.50;99.90
36586;DHT22;22591;48.314;11.562;2022-08-19T05:29:04;19.50;99.90
36586;DHT22;22591;48.314;11.562;2022-08-19T05:31:30;19.50;99.90
36586;DHT22;22591;48.314;11.562;2022-08-19T05:33:56;19.40;99.90
36586;DHT22;22591;48.314;11.562;2022-08-19T05:36:26;19.50;99.90
36586;DHT22;22591;48.314;11.562;2022-08-19T05:38:52;19.50;99.90
36586;DHT22;22591;48.314;11.562;2022-08-19T05:41:19;19.50;99.90
36586;DHT22;22591;48.314;11.562;2022-08-19T05:43:45;19.50;99.90
36586;DHT22;22591;48.314;11.562;2022-08-19T05:46:18;19.40;99.90
36586;DHT22;22591;48.314;11.562;2022-08-19T05:48:44;19.40;99.90
36586;DHT22;22591;48.314;11.562;2022-08-19T05:51:10;19.40;99.90
36586;DHT22;22591;48.314;11.562;2022-08-19T05:53:36;19.50;99.90
36586;DHT22;22591;48.314;11.562;2022-08-19T05:56:06;19.50;99.90
36586;DHT22;22591;48.314;11.562;2022-08-19T05:58:33;19.60;99.90
36586;DHT22;22591;48.314;11.562;2022-08-19T06:00:59;19.60;99.90
36586;DHT22;22591;48.314;11.562;2022-08-19T06:03:30;19.60;99.90
36586;DHT22;22591;48.314;11.562;2022-08-19T06:05:56;19.50;99.90
36586;DHT22;22591;48.314;11.562;2022-08-19T06:08:23;19.50;99.90
36586;DHT22;22591;48.314;11.562;2022-08-19T06:10:49;19.50;99.90
36586;DHT22;22591;48.314;11.562;2022-08-19T06:13:14;19.60;99.90
36586;DHT22;22591;48.314;11.562;2022-08-19T06:15:40;19.60;99.90
36586;DHT22;22591;48.314;11.562;2022-08-19T06:18:09;19.60;99.90
36586;DHT22;22591;48.314;11.562;2022-08-19T06:20:34;19.50;99.90
36586;DHT22;22591;48.314;11.562;2022-08-19T06:23:00;19.60;99.90
36586;DHT22;22591;48.314;11.562;2022-08-19T06:25:25;19.60;99.90
36586;DHT22;22591;48.314;11.562;2022-08-19T06:27:51;19.60;99.90
36586;DHT22;22591;48.314;11.562;2022-08-19T06:30:16;19.50;99.90
36586;DHT22;22591;48.314;11.562;2022-08-19T06:32:42;19.50;99.90
36586;DHT22;22591;48.314;11.562;2022-08-19T06:35:08;19.50;99.90
36586;DHT22;22591;48.314;11.562;2022-08-19T06:37:33;19.50;99.90
36586;DHT22;22591;48.314;11.562;2022-08-19T06:39:59;19.50;99.90
36586;DHT22;22591;48.314;11.562;2022-08-19T06:42:25;19.50;99.90
36586;DHT22;22591;48.314;11.562;2022-08-19T06:44:50;19.40;99.90
36586;DHT22;22591;48.314;11.562;2022-08-19T06:47:19;19.40;99.90
36586;DHT22;22591;48.314;11.562;2022-08-19T06:49:45;19.50;99.90
36586;DHT22;22591;48.314;11.562;2022-08-19T06:52:11;19.40;99.90
36586;DHT22;22591;48.314;11.562;2022-08-19T06:54:41;19.50;99.90
36586;DHT22;22591;48.314;11.562;2022-08-19T06:57:07;19.50;99.90
36586;DHT22;22591;48.314;11.562;2022-08-19T06:59:34;19.50;99.90
36586;DHT22;22591;48.314;11.562;2022-08-19T07:02:03;19.50;99.90
36586;DHT22;22591;48.314;11.562;2022-08-19T07:04:34;19.50;99.90
36586;DHT22;22591;48.314;11.562;2022-08-19T07:07:08;19.50;99.90
36586;DHT22;22591;48.314;11.562;2022-08-19T07:09:36;19.50;99.90
36586;DHT22;22591;48.314;11.562;2022-08-19T07:12:04;19.60;99.90
36586;DHT22;22591;48.314;11.562;2022-08-19T07:14:30;19.60;99.90
36586;DHT22;22591;48.314;11.562;2022-08-19T07:16:57;19.60;99.90
36586;DHT22;22591;48.314;11.562;2022-08-19T07:19:24;19.60;99.90
36586;DHT22;22591;48.314;11.562;2022-08-19T07:21:53;19.60;99.90
36586;DHT22;22591;48.314;11.562;2022-08-19T07:24:21;19.60;99.90
36586;DHT22;22591;48.314;11.562;2022-08-19T07:26:50;19.60;99.90
36586;DHT22;22591;48.314;11.562;2022-08-19T07:29:16;19.60;99.90
36586;DHT22;22591;48.314;11.562;2022-08-19T07:31:42;19.60;99.90
36586;DHT22;22591;48.314;11.562;2022-08-19T07:34:09;19.60;99.90
36586;DHT22;22591;48.314;11.562;2022-08-19T07:36:38;19.60;99.90
36586;DHT22;22591;48.314;11.562;2022-08-19T07:39:09;19.70;99.90
36586;DHT22;22591;48.314;11.562;2022-08-19T07:41:36;19.90;99.90
36586;DHT22;22591;48.314;11.562;2022-08-19T07:44:03;20.10;99.90
36586;DHT22;22591;48.314;11.562;2022-08-19T07:46:33;20.20;99.90
36586;DHT22;22591;48.314;11.562;2022-08-19T07:48:59;20.50;99.90
36586;DHT22;22591;48.314;11.562;2022-08-19T07:51:26;20.50;99.90
36586;DHT22;22591;48.314;11.562;2022-08-19T07:53:52;20.40;99.90
36586;DHT22;22591;48.314;11.562;2022-08-19T07:56:20;20.30;99.90
36586;DHT22;22591;48.314;11.562;2022-08-19T07:58:47;20.10;99.90
36586;DHT22;22591;48.314;11.562;2022-08-19T08:01:16;20.10;99.90
36586;DHT22;22591;48.314;11.562;2022-08-19T08:03:42;20.00;99.90
36586;DHT22;22591;48.314;11.562;2022-08-19T08:06:40;19.90;99.90
36586;DHT22;22591;48.314;11.562;2022-08-19T08:09:30;19.80;99.90
36586;DHT22;22591;48.314;11.562;2022-08-19T08:12:12;19.90;99.90
36586;DHT22;22591;48.314;11.562;2022-08-19T08:14:45;19.90;99.90
36586;DHT22;22591;48.314;11.562;2022-08-19T08:17:13;19.90;99.90
36586;DHT22;22591;48.314;11.562;2022-08-19T08:19:39;19.80;99.90
36586;DHT22;22591;48.314;11.562;2022-08-19T08:22:11;19.80;99.90
36586;DHT22;22591;48.314;11.562;2022-08-19T08:24:55;19.90;99.90
36586;DHT22;22591;48.314;11.562;2022-08-19T08:27:24;20.00;99.90
36586;DHT22;22591;48.314;11.562;2022-08-19T08:29:49;20.20;99.90
36586;DHT22;22591;48.314;11.562;2022-08-19T08:32:15;20.30;99.90
36586;DHT22;22591;48.314;11.562;2022-08-19T08:34:41;20.70;99.90
36586;DHT22;22591;48.314;11.562;2022-08-19T08:37:07;20.90;99.90
36586;DHT22;22591;48.314;11.562;2022-08-19T08:39:32;20.90;99.90
36586;DHT22;22591;48.314;11.562;2022-08-19T08:42:12;21.00;99.90
36586;DHT22;22591;48.314;11.562;2022-08-19T08:44:59;20.90;99.90
36586;DHT22;22591;48.314;11.562;2022-08-19T08:47:29;20.70;99.90
36586;DHT22;22591;48.314;11.562;2022-08-19T08:50:04;20.70;99.90
36586;DHT22;22591;48.314;11.562;2022-08-19T08:52:34;20.80;99.90
36586;DHT22;22591;48.314;11.562;2022-08-19T08:55:09;20.80;99.90
36586;DHT22;22591;48.314;11.562;2022-08-19T08:57:49;20.80;99.90
36586;DHT22;22591;48.314;11.562;2022-08-19T09:02:47;20.70;99.90
36586;DHT22;22591;48.314;11.562;2022-08-19T09:05:13;20.70;99.90
36586;DHT22;22591;48.314;11.562;2022-08-19T09:08:01;20.70;99.90
36586;DHT22;22591;48.314;11.562;2022-08-19T09:13:26;20.90;99.90
36586;DHT22;22591;48.314;11.562;2022-08-19T09:16:05;21.00;99.90
36586;DHT22;22591;48.314;11.562;2022-08-19T09:18:49;20.90;99.90
36586;DHT22;22591;48.314;11.562;2022-08-19T09:21:18;20.90;99.90
36586;DHT22;22591;48.314;11.562;2022-08-19T09:23:44;21.00;99.90
36586;DHT22;22591;48.314;11.562;2022-08-19T09:26:13;21.20;99.90
36586;DHT22;22591;48.314;11.562;2022-08-19T09:28:44;21.20;99.90
36586;DHT22;22591;48.314;11.562;2022-08-19T09:31:22;21.20;99.90
36586;DHT22;22591;48.314;11.562;2022-08-19T09:33:48;21.20;99.90
36586;DHT22;22591;48.314;11.562;2022-08-19T09:36:16;21.10;99.90
36586;DHT22;22591;48.314;11.562;2022-08-19T09:38:42;21.00;99.90
36586;DHT22;22591;48.314;11.562;2022-08-19T09:41:10;21.00;99.90
36586;DHT22;22591;48.314;11.562;2022-08-19T09:43:38;21.00;99.90
36586;DHT22;22591;48.314;11.562;2022-08-19T09:46:05;21.00;99.90
36586;DHT22;22591;48.314;11.562;2022-08-19T09:48:32;21.10;99.90
36586;DHT22;22591;48.314;11.562;2022-08-19T09:51:05;21.20;99.90
36586;DHT22;22591;48.314;11.562;2022-08-19T09:53:36;21.40;99.90
36586;DHT22;22591;48.314;11.562;2022-08-19T09:56:04;21.40;99.90
36586;DHT22;22591;48.314;11.562;2022-08-19T09:58:30;21.30;99.90
36586;DHT22;22591;48.314;11.562;2022-08-19T10:01:00;21.40;99.90
36586;DHT22;22591;48.314;11.562;2022-08-19T10:03:28;21.30;99.90
36586;DHT22;22591;48.314;11.562;2022-08-19T10:05:54;21.30;99.90
36586;DHT22;22591;48.314;11.562;2022-08-19T10:08:23;21.30;99.90
36586;DHT22;22591;48.314;11.562;2022-08-19T10:10:50;21.40;99.90
36586;DHT22;22591;48.314;11.562;2022-08-19T10:13:20;21.50;99.90
36586;DHT22;22591;48.314;11.562;2022-08-19T10:15:51;21.50;99.90
36586;DHT22;22591;48.314;11.562;2022-08-19T10:18:18;21.50;99.90
36586;DHT22;22591;48.314;11.562;2022-08-19T10:20:46;21.40;99.90
36586;DHT22;22591;48.314;11.562;2022-08-19T10:23:12;21.50;99.90
36586;DHT22;22591;48.314;11.562;2022-08-19T10:25:38;21.60;99.90
36586;DHT22;22591;48.314;11.562;2022-08-19T10:28:04;21.60;99.90
36586;DHT22;22591;48.314;11.562;2022-08-19T10:30:31;21.70;99.90
36586;DHT22;22591;48.314;11.562;2022-08-19T10:32:57;21.70;99.90
36586;DHT22;22591;48.314;11.562;2022-08-19T10:35:23;21.70;99.90
36586;DHT22;22591;48.314;11.562;2022-08-19T10:37:50;21.70;99.90
36586;DHT22;22591;48.314;11.562;2022-08-19T10:40:15;21.80;99.90
36586;DHT22;22591;48.314;11.562;2022-08-19T10:42:41;21.80;99.90
36586;DHT22;22591;48.314;11.562;2022-08-19T10:45:07;22.00;99.90
36586;DHT22;22591;48.314;11.562;2022-08-19T10:47:34;22.50;99.90
36586;DHT22;22591;48.314;11.562;2022-08-19T10:50:00;23.00;99.90
36586;DHT22;22591;48.314;11.562;2022-08-19T10:52:46;23.50;99.90
36586;DHT22;22591;48.314;11.562;2022-08-19T10:55:11;24.00;99.90
36586;DHT22;22591;48.314;11.562;2022-08-19T10:57:56;24.30;99.90
36586;DHT22;22591;48.314;11.562;2022-08-19T11:00:23;24.50;99.90
36586;DHT22;22591;48.314;11.562;2022-08-19T11:02:49;24.40;99.90
36586;DHT22;22591;48.314;11.562;2022-08-19T11:05:15;24.70;99.90
36586;DHT22;22591;48.314;11.562;2022-08-19T11:07:42;24.90;99.90
36586;DHT22;22591;48.314;11.562;2022-08-19T11:10:12;24.80;99.90
36586;DHT22;22591;48.314;11.562;2022-08-19T11:12:39;24.70;99.90
36586;DHT22;22591;48.314;11.562;2022-08-19T11:15:06;24.70;99.90
36586;DHT22;22591;48.314;11.562;2022-08-19T11:17:34;25.30;99.90
36586;DHT22;22591;48.314;11.562;2022-08-19T11:19:59;25.60;99.90
36586;DHT22;22591;48.314;11.562;2022-08-19T11:22:28;26.00;99.90
36586;DHT22;22591;48.314;11.562;2022-08-19T11:24:54;26.00;99.90
36586;DHT22;22591;48.314;11.562;2022-08-19T11:27:21;26.30;99.90
36586;DHT22;22591;48.314;11.562;2022-08-19T11:29:46;26.40;99.90
36586;DHT22;22591;48.314;11.562;2022-08-19T11:32:12;26.10;99.90
36586;DHT22;22591;48.314;11.562;2022-08-19T11:34:38;26.00;99.90
36586;DHT22;22591;48.314;11.562;2022-08-19T11:37:05;25.70;99.90
36586;DHT22;22591;48.314;11.562;2022-08-19T11:39:32;25.40;99.90
36586;DHT22;22591;48.314;11.562;2022-08-19T11:42:00;25.20;99.90
36586;DHT22;22591;48.314;11.562;2022-08-19T11:44:27;25.00;99.90
36586;DHT22;22591;48.314;11.562;2022-08-19T11:46:55;24.80;99.90
36586;DHT22;22591;48.314;11.562;2022-08-19T11:49:21;24.70;99.90
36586;DHT22;22591;48.314;11.562;2022-08-19T11:51:47;24.80;99.90
36586;DHT22;22591;48.314;11.562;2022-08-19T11:54:15;24.80;99.90
36586;DHT22;22591;48.314;11.562;2022-08-19T11:56:42;24.50;99.90
36586;DHT22;22591;48.314;11.562;2022-08-19T11:59:07;24.40;99.90
36586;DHT22;22591;48.314;11.562;2022-08-19T12:01:33;24.50;99.90
36586;DHT22;22591;48.314;11.562;2022-08-19T12:03:59;24.40;99.90
36586;DHT22;22591;48.314;11.562;2022-08-19T12:06:30;24.40;99.90
36586;DHT22;22591;48.314;11.562;2022-08-19T12:08:59;24.70;99.90
36586;DHT22;22591;48.314;11.562;2022-08-19T12:11:26;25.10;99.90
36586;DHT22;22591;48.314;11.562;2022-08-19T12:13:52;25.50;99.90
36586;DHT22;22591;48.314;11.562;2022-08-19T12:16:21;25.90;99.90
36586;DHT22;22591;48.314;11.562;2022-08-19T12:18:49;26.20;99.90
36586;DHT22;22591;48.314;11.562;2022-08-19T12:21:22;26.30;99.90
36586;DHT22;22591;48.314;11.562;2022-08-19T12:23:49;26.10;99.90
36586;DHT22;22591;48.314;11.562;2022-08-19T12:26:16;26.10;99.90
36586;DHT22;22591;48.314;11.562;2022-08-19T12:28:42;25.90;99.90
36586;DHT22;22591;48.314;11.562;2022-08-19T12:31:08;25.90;99.90
36586;DHT22;22591;48.314;11.562;2022-08-19T12:33:34;25.90;99.90
36586;DHT22;22591;48.314;11.562;2022-08-19T12:36:02;25.60;99.90
36586;DHT22;22591;48.314;11.562;2022-08-19T12:38:28;25.20;99.90
36586;DHT22;22591;48.314;11.562;2022-08-19T12:40:54;24.80;99.90
36586;DHT22;22591;48.314;11.562;2022-08-19T12:43:19;24.80;99.90
36586;DHT22;22591;48.314;11.562;2022-08-19T12:45:45;24.90;99.90
36586;DHT22;22591;48.314;11.562;2022-08-19T12:48:12;24.80;99.90
36586;DHT22;22591;48.314;11.562;2022-08-19T12:50:42;24.40;99.90
36586;DHT22;22591;48.314;11.562;2022-08-19T12:53:10;24.00;99.90
36586;DHT22;22591;48.314;11.562;2022-08-19T12:55:35;24.00;99.90
36586;DHT22;22591;48.314;11.562;2022-08-19T12:58:01;24.00;99.90
36586;DHT22;22591;48.314;11.562;2022-08-19T13:00:27;24.00;99.90
36586;DHT22;22591;48.314;11.562;2022-08-19T13:02:53;24.00;99.90
36586;DHT22;22591;48.314;11.562;2022-08-19T13:05:22;23.90;99.90
36586;DHT22;22591;48.314;11.562;2022-08-19T13:07:49;23.80;99.90
36586;DHT22;22591;48.314;11.562;2022-08-19T13:10:20;23.80;99.90
36586;DHT22;22591;48.314;11.562;2022-08-19T13:12:48;23.90;99.90
36586;DHT22;22591;48.314;11.562;2022-08-19T13:15:14;24.10;99.90
36586;DHT22;22591;48.314;11.562;2022-08-19T13:17:40;24.00;99.90
36586;DHT22;22591;48.314;11.562;2022-08-19T13:20:08;24.00;99.90
36586;DHT22;22591;48.314;11.562;2022-08-19T13:22:35;24.00;99.90
36586;DHT22;22591;48.314;11.562;2022-08-19T13:25:02;24.10;99.90
36586;DHT22;22591;48.314;11.562;2022-08-19T13:27:29;24.30;99.90
36586;DHT22;22591;48.314;11.562;2022-08-19T13:29:54;24.30;99.90
36586;DHT22;22591;48.314;11.562;2022-08-19T13:32:38;24.20;99.90
36586;DHT22;22591;48.314;11.562;2022-08-19T13:35:22;24.30;99.90
36586;DHT22;22591;48.314;11.562;2022-08-19T13:37:48;24.80;99.90
36586;DHT22;22591;48.314;11.562;2022-08-19T13:40:23;24.80;99.90
36586;DHT22;22591;48.314;11.562;2022-08-19T13:42:53;24.50;99.90
36586;DHT22;22591;48.314;11.562;2022-08-19T13:45:21;24.50;99.90
36586;DHT22;22591;48.314;11.562;2022-08-19T13:47:48;24.40;99.90
36586;DHT22;22591;48.314;11.562;2022-08-19T13:50:18;24.30;99.90
36586;DHT22;22591;48.314;11.562;2022-08-19T13:52:44;24.60;99.90
36586;DHT22;22591;48.314;11.562;2022-08-19T13:55:11;24.60;99.90
36586;DHT22;22591;48.314;11.562;2022-08-19T13:57:38;24.60;99.90
36586;DHT22;22591;48.314;11.562;2022-08-19T14:00:13;25.20;99.90
36586;DHT22;22591;48.314;11.562;2022-08-19T14:02:40;25.30;99.90
36586;DHT22;22591;48.314;11.562;2022-08-19T14:05:09;25.40;99.90
36586;DHT22;22591;48.314;11.562;2022-08-19T14:07:35;25.60;99.90
36586;DHT22;22591;48.314;11.562;2022-08-19T14:10:02;25.40;99.90
36586;DHT22;22591;48.314;11.562;2022-08-19T14:12:28;25.30;99.90
36586;DHT22;22591;48.314;11.562;2022-08-19T14:14:53;25.20;99.90
36586;DHT22;22591;48.314;11.562;2022-08-19T14:17:19;24.90;99.90
36586;DHT22;22591;48.314;11.562;2022-08-19T14:19:44;24.70;99.90
36586;DHT22;22591;48.314;11.562;2022-08-19T14:22:10;24.60;99.90
36586;DHT22;22591;48.314;11.562;2022-08-19T14:24:37;24.50;99.90
36586;DHT22;22591;48.314;11.562;2022-08-19T14:27:05;24.40;99.90
36586;DHT22;22591;48.314;11.562;2022-08-19T14:29:32;24.70;99.90
36586;DHT22;22591;48.314;11.562;2022-08-19T14:31:57;24.70;99.90
36586;DHT22;22591;48.314;11.562;2022-08-19T14:34:24;24.60;99.90
36586;DHT22;22591;48.314;11.562;2022-08-19T14:36:50;24.20;99.90
36586;DHT22;22591;48.314;11.562;2022-08-19T14:39:16;23.90;99.90
36586;DHT22;22591;48.314;11.562;2022-08-19T14:41:42;23.90;99.90
36586;DHT22;22591;48.314;11.562;2022-08-19T14:44:08;23.90;99.90
36586;DHT22;22591;48.314;11.562;2022-08-19T14:46:37;24.00;99.90
36586;DHT22;22591;48.314;11.562;2022-08-19T14:49:03;24.40;99.90
36586;DHT22;22591;48.314;11.562;2022-08-19T14:51:29;24.40;99.90
36586;DHT22;22591;48.314;11.562;2022-08-19T14:53:55;24.50;99.90
36586;DHT22;22591;48.314;11.562;2022-08-19T14:56:25;24.40;99.90
36586;DHT22;22591;48.314;11.562;2022-08-19T14:58:50;24.40;99.90
36586;DHT22;22591;48.314;11.562;2022-08-19T15:01:17;24.60;99.90
36586;DHT22;22591;48.314;11.562;2022-08-19T15:03:45;24.90;99.90
36586;DHT22;22591;48.314;11.562;2022-08-19T15:06:11;24.60;99.90
36586;DHT22;22591;48.314;11.562;2022-08-19T15:08:38;24.20;99.90
36586;DHT22;22591;48.314;11.562;2022-08-19T15:11:08;23.90;99.90
36586;DHT22;22591;48.314;11.562;2022-08-19T15:13:35;23.50;99.90
36586;DHT22;22591;48.314;11.562;2022-08-19T15:16:01;23.10;99.90
36586;DHT22;22591;48.314;11.562;2022-08-19T15:18:27;22.70;99.90
36586;DHT22;22591;48.314;11.562;2022-08-19T15:20:53;22.40;99.90
36586;DHT22;22591;48.314;11.562;2022-08-19T15:23:19;22.10;99.90
36586;DHT22;22591;48.314;11.562;2022-08-19T15:25:45;22.00;99.90
36586;DHT22;22591;48.314;11.562;2022-08-19T15:28:11;21.90;99.90